Time;durP1;ratioP1;P1;durP2;ratioP2;P2;SDS_P1;SDS_P2;PMS_P1;PMS_P2;Temp;Humidity;BMP_temperature;BMP_pressure;BME280_temperature;BME280_humidity;BME280_pressure;Samples;Min_cycle;Max_cycle;Signal;HPM_P1;HPM_P2
2023/01/04 05:22:41;;;;;;;11.82;4.43;;;;;;;4.63;100.00;101281.31;5088823;28;20332;-65
2023/01/04 05:25:08;;;;;;;10.15;4.90;;;;;;;4.70;100.00;101286.16;5087527;28;20048;-66
2023/01/04 05:27:35;;;;;;;10.07;4.80;;;;;;;4.73;100.00;101280.66;5088573;28;20065;-67
2023/01/04 05:32:45;;;;;;;9.85;4.93;;;;;;;4.86;100.00;101281.44;5088906;28;20507;-67
2023/01/04 05:35:10;;;;;;;9.07;4.38;;;;;;;4.91;100.00;101279.31;5088369;28;20072;-68
2023/01/04 05:37:35;;;;;;;10.25;4.50;;;;;;;4.95;100.00;101279.91;5088498;28;20044;-67
2023/01/04 05:40:01;;;;;;;10.13;5.10;;;;;;;5.00;100.00;101273.34;5087455;28;20109;-67
2023/01/04 05:42:26;;;;;;;6.38;3.88;;;;;;;5.06;100.00;101274.72;5088577;28;20388;-67
2023/01/04 05:44:57;;;;;;;9.27;3.65;;;;;;;5.10;100.00;101274.38;5088717;28;20036;-66
2023/01/04 05:47:23;;;;;;;6.70;3.47;;;;;;;5.17;100.00;101272.97;5088272;28;20032;-67
2023/01/04 05:49:49;;;;;;;9.40;4.50;;;;;;;5.18;100.00;101260.59;5088467;28;20024;-67
2023/01/04 05:52:14;;;;;;;13.30;3.85;;;;;;;5.24;100.00;101264.59;5088413;28;20400;-67
2023/01/04 05:54:40;;;;;;;17.60;4.68;;;;;;;5.28;100.00;101260.75;5088382;28;20041;-68
2023/01/04 05:57:06;;;;;;;6.25;2.78;;;;;;;5.44;100.00;101253.38;5087839;28;20040;-67
2023/01/04 05:59:31;;;;;;;2.97;1.63;;;;;;;5.68;100.00;101250.66;5088201;28;20328;-67
2023/01/04 06:01:57;;;;;;;2.83;1.63;;;;;;;5.93;100.00;101247.00;5088256;28;20034;-68
2023/01/04 06:04:22;;;;;;;3.35;1.35;;;;;;;6.16;100.00;101253.97;5088416;28;20615;-66
2023/01/04 06:06:47;;;;;;;5.00;1.70;;;;;;;6.42;100.00;101253.72;5088181;28;20439;-65
2023/01/04 06:09:13;;;;;;;4.90;1.20;;;;;;;6.67;100.00;101253.47;5088018;28;20037;-66
2023/01/04 06:11:38;;;;;;;5.05;1.48;;;;;;;6.74;100.00;101237.91;5088138;28;20117;-66
2023/01/04 06:14:04;;;;;;;1.88;1.00;;;;;;;6.90;100.00;101258.69;5088378;28;20062;-66
2023/01/04 06:16:29;;;;;;;1.60;1.25;;;;;;;6.97;100.00;101247.47;5087901;28;20365;-65
2023/01/04 06:18:54;;;;;;;1.67;1.20;;;;;;;7.14;100.00;101246.09;5088614;28;20079;-67
2023/01/04 06:21:20;;;;;;;2.10;1.35;;;;;;;7.26;100.00;101239.78;5087761;28;20155;-68
2023/01/04 06:23:45;;;;;;;4.75;2.70;;;;;;;7.38;99.64;101237.06;5087858;28;20066;-67
2023/01/04 06:26:11;;;;;;;4.10;1.48;;;;;;;7.40;99.74;101245.72;5087698;28;20531;-67
2023/01/04 06:28:36;;;;;;;1.50;1.02;;;;;;;7.45;99.03;101244.38;5087455;28;20040;-68
2023/01/04 06:31:06;;;;;;;1.67;1.13;;;;;;;7.59;97.41;101222.00;5087598;28;20041;-67
2023/01/04 06:33:32;;;;;;;1.20;1.08;;;;;;;7.65;96.56;101232.09;5077188;28;20032;-68
2023/01/04 06:35:58;;;;;;;2.15;1.13;;;;;;;7.64;97.72;101227.75;5074085;28;20509;-66
2023/01/04 06:38:24;;;;;;;1.35;1.00;;;;;;;7.72;96.04;101219.97;5073900;28;20032;-67
2023/01/04 06:40:49;;;;;;;1.30;0.90;;;;;;;7.72;97.72;101227.94;5074011;28;20043;-66
2023/01/04 06:43:14;;;;;;;1.25;1.02;;;;;;;7.79;95.37;101217.66;5072680;28;20045;-67
2023/01/04 06:45:41;;;;;;;1.08;0.95;;;;;;;7.82;95.02;101227.97;5072706;28;20489;-68
2023/01/04 06:48:06;;;;;;;1.40;0.80;;;;;;;7.89;94.05;101221.19;5073494;28;20036;-67
2023/01/04 06:50:31;;;;;;;1.80;1.25;;;;;;;7.92;93.78;101230.69;5073804;28;20045;-65
2023/01/04 06:52:57;;;;;;;2.40;1.00;;;;;;;7.98;93.16;101230.16;5072599;28;20047;-67
2023/01/04 06:55:22;;;;;;;1.25;1.00;;;;;;;7.98;92.64;101225.69;5073633;28;20048;-68
2023/01/04 06:57:48;;;;;;;1.70;1.23;;;;;;;8.02;93.33;101220.94;5073496;28;20039;-66
2023/01/04 07:00:13;;;;;;;2.17;1.10;;;;;;;8.04;92.11;101213.72;5073115;28;20047;-66
2023/01/04 07:02:39;;;;;;;1.35;1.05;;;;;;;8.08;91.40;101212.47;5053754;28;20037;-66
2023/01/04 07:05:05;;;;;;;2.50;1.63;;;;;;;8.11;92.36;101214.88;5053543;28;20033;-65
2023/01/04 07:07:32;;;;;;;1.25;1.05;;;;;;;8.12;91.56;101214.72;5071490;28;20535;-66
2023/01/04 07:09:57;;;;;;;3.00;1.00;;;;;;;8.15;90.49;101213.63;5073546;28;20481;-66
2023/01/04 07:12:22;;;;;;;1.08;0.98;;;;;;;8.12;90.79;101212.06;5073482;28;20070;-66
2023/01/04 07:14:48;;;;;;;2.92;1.00;;;;;;;8.14;90.52;101211.94;5073474;28;20481;-66
2023/01/04 07:17:13;;;;;;;1.63;0.75;;;;;;;8.17;89.73;101214.31;5072833;28;20424;-67
2023/01/04 07:19:38;;;;;;;2.03;1.23;;;;;;;8.19;90.27;101200.91;5073329;28;20127;-66
2023/01/04 07:22:04;;;;;;;0.93;0.70;;;;;;;8.20;90.29;101213.22;5073437;28;20102;-67
2023/01/04 07:24:29;;;;;;;1.55;1.25;;;;;;;8.18;90.66;101208.03;5073141;28;20052;-67
2023/01/04 07:26:55;;;;;;;3.20;1.02;;;;;;;8.16;90.74;101204.69;5073037;28;20044;-68
2023/01/04 07:29:21;;;;;;;1.63;0.95;;;;;;;8.15;91.38;101210.97;5072831;28;20394;-67
2023/01/04 07:31:49;;;;;;;1.15;0.73;;;;;;;8.15;91.03;101211.81;5072867;28;20047;-68
2023/01/04 07:34:17;;;;;;;2.75;1.25;;;;;;;8.21;90.09;101207.75;5072907;28;20040;-68
2023/01/04 07:36:42;;;;;;;1.52;0.98;;;;;;;8.22;89.75;101198.84;5072944;28;20048;-68
2023/01/04 07:39:11;;;;;;;1.13;0.90;;;;;;;8.29;89.08;101202.63;5072465;28;20040;-67
2023/01/04 07:41:40;;;;;;;1.48;0.80;;;;;;;8.33;88.00;101204.03;5072722;28;20426;-68
2023/01/04 07:44:08;;;;;;;1.25;0.60;;;;;;;8.35;88.47;101202.13;5070501;28;20028;-67
2023/01/04 07:46:34;;;;;;;1.05;0.90;;;;;;;8.35;88.01;101196.81;5072584;28;20513;-68
2023/01/04 07:49:00;;;;;;;3.25;1.08;;;;;;;8.40;87.57;101186.59;5072344;28;20119;-66
2023/01/04 07:51:25;;;;;;;2.53;0.90;;;;;;;8.43;88.54;101189.00;5072460;28;20554;-66
2023/01/04 07:53:51;;;;;;;2.85;0.90;;;;;;;8.51;86.91;101183.00;5072490;28;20074;-65
2023/01/04 07:56:17;;;;;;;1.10;0.70;;;;;;;8.49;88.35;101178.81;5072446;28;20469;-69
2023/01/04 07:58:42;;;;;;;1.30;0.90;;;;;;;8.45;88.79;101185.38;5072163;28;20044;-70
2023/01/04 08:01:11;;;;;;;1.50;0.80;;;;;;;8.48;88.24;101185.13;5072355;28;20040;-70
2023/01/04 08:03:36;;;;;;;2.90;1.10;;;;;;;8.46;88.80;101181.75;5072494;28;20039;-69
2023/01/04 08:06:07;;;;;;;2.17;0.85;;;;;;;8.43;88.41;101174.91;5072228;28;20534;-69
2023/01/04 08:08:33;;;;;;;2.53;1.02;;;;;;;8.45;88.17;101174.75;5072062;28;20040;-70
2023/01/04 08:11:06;;;;;;;0.77;0.60;;;;;;;8.41;88.10;101167.06;5072201;28;20077;-69
2023/01/04 08:13:31;;;;;;;1.70;0.80;;;;;;;8.48;87.23;101155.91;5072340;28;20044;-69
2023/01/04 08:15:57;;;;;;;1.17;0.63;;;;;;;8.48;87.00;101153.25;5072028;28;20043;-69
2023/01/04 08:18:22;;;;;;;0.52;0.52;;;;;;;8.51;87.17;101145.00;5071770;28;20397;-69
2023/01/04 08:20:48;;;;;;;0.88;0.60;;;;;;;8.51;85.99;101137.03;5071113;28;20031;-69
2023/01/04 08:23:13;;;;;;;1.10;0.80;;;;;;;8.61;85.00;101149.34;5071977;28;20382;-69
2023/01/04 08:25:39;;;;;;;1.63;1.10;;;;;;;8.63;85.68;101138.59;5072025;28;20044;-69
2023/01/04 08:28:04;;;;;;;2.30;0.55;;;;;;;8.67;85.09;101137.31;5071688;28;20181;-69
2023/01/04 08:30:30;;;;;;;1.75;0.70;;;;;;;8.75;84.02;101120.69;5072252;28;20359;-70
2023/01/04 08:32:56;;;;;;;0.63;0.43;;;;;;;8.76;84.21;101115.22;5071850;28;20054;-68
2023/01/04 08:35:22;;;;;;;1.63;0.82;;;;;;;8.79;83.70;101122.91;5071613;28;20036;-69
2023/01/04 08:37:47;;;;;;;0.70;0.70;;;;;;;8.86;82.97;101125.84;5071387;28;20048;-69
2023/01/04 08:40:13;;;;;;;4.65;1.50;;;;;;;8.88;83.41;101118.59;5071522;28;20378;-69
2023/01/04 08:42:38;;;;;;;0.70;0.68;;;;;;;8.93;82.63;101113.66;5071659;28;20044;-69
2023/01/04 08:45:04;;;;;;;1.67;0.57;;;;;;;8.90;82.95;101120.13;5071543;28;20087;-68
2023/01/04 08:47:31;;;;;;;0.30;0.30;;;;;;;9.06;82.09;101134.63;5071268;28;20032;-69
2023/01/04 08:49:57;;;;;;;0.65;0.40;;;;;;;9.08;80.91;101119.41;5071484;28;20070;-68
2023/01/04 08:52:23;;;;;;;1.48;0.73;;;;;;;9.12;81.83;101131.41;5071396;28;20087;-69
2023/01/04 08:54:48;;;;;;;0.60;0.60;;;;;;;9.20;80.69;101119.09;5071495;28;20094;-69
2023/01/04 08:57:15;;;;;;;1.98;0.50;;;;;;;9.24;80.02;101115.16;5070720;28;20043;-70
2023/01/04 08:59:40;;;;;;;0.95;0.70;;;;;;;9.30;79.10;101103.13;5071374;28;20036;-70
2023/01/04 09:02:18;;;;;;;2.95;0.43;;;;;;;9.35;79.56;101103.53;5071382;28;20036;-69
2023/01/04 09:04:43;;;;;;;0.93;0.70;;;;;;;9.35;79.70;101108.84;5071361;28;20036;-70
2023/01/04 09:07:09;;;;;;;1.52;0.63;;;;;;;9.39;79.40;101112.91;5071079;28;20043;-68
2023/01/04 09:09:34;;;;;;;2.50;0.50;;;;;;;9.45;79.60;101122.09;5071104;28;20071;-69
2023/01/04 09:12:00;;;;;;;3.50;0.60;;;;;;;9.46;78.48;101114.00;5071323;28;20119;-69
2023/01/04 09:14:25;;;;;;;2.25;1.48;;;;;;;9.44;78.49;101126.59;5071177;28;20036;-69
2023/01/04 09:16:50;;;;;;;2.72;1.38;;;;;;;9.47;78.27;101110.34;5071248;28;20039;-69
2023/01/04 09:19:16;;;;;;;0.93;0.55;;;;;;;9.55;78.09;101111.44;5071013;28;20362;-70
2023/01/04 09:21:41;;;;;;;2.67;0.98;;;;;;;9.56;78.64;101121.09;5071274;28;20044;-69
2023/01/04 09:24:07;;;;;;;2.25;0.93;;;;;;;9.57;78.40;101109.47;5071203;28;20037;-69
2023/01/04 09:26:32;;;;;;;1.50;0.68;;;;;;;9.57;78.07;101115.63;5070738;28;20473;-69
2023/01/04 09:28:57;;;;;;;3.28;1.10;;;;;;;9.59;78.56;101124.31;5070155;28;20378;-70
2023/01/04 09:31:26;;;;;;;0.70;0.70;;;;;;;9.66;77.83;101114.75;5070250;28;20165;-70
2023/01/04 09:33:53;;;;;;;1.17;0.60;;;;;;;9.61;78.56;101109.03;5070818;28;20380;-68
2023/01/04 09:36:19;;;;;;;0.40;0.35;;;;;;;9.63;78.02;101119.53;5070508;28;20058;-70
2023/01/04 09:38:44;;;;;;;2.55;0.90;;;;;;;9.68;78.74;101096.00;5070139;28;20036;-70
2023/01/04 09:41:13;;;;;;;0.73;0.50;;;;;;;9.67;78.95;101107.63;5070563;28;20024;-70
2023/01/04 09:43:46;;;;;;;3.63;1.02;;;;;;;9.64;78.73;101091.94;5071016;28;20113;-69
2023/01/04 09:46:36;;;;;;;0.52;0.43;;;;;;;9.69;79.18;101095.00;5071016;28;20438;-69
2023/01/04 09:49:34;;;;;;;1.63;1.08;;;;;;;9.70;78.41;101094.00;5063294;28;20063;-71
2023/01/04 09:52:05;;;;;;;1.27;0.65;;;;;;;9.68;79.19;101096.00;5066933;28;20040;-69
2023/01/04 09:54:44;;;;;;;1.35;0.63;;;;;;;9.70;79.49;101100.16;5070818;28;20032;-71
2023/01/04 09:57:19;;;;;;;2.60;0.70;;;;;;;9.72;79.43;101084.91;5070641;28;20032;-70
2023/01/04 09:59:47;;;;;;;0.63;0.63;;;;;;;9.71;78.45;101079.72;5070963;28;20032;-69
2023/01/04 10:02:20;;;;;;;2.78;0.65;;;;;;;9.72;80.19;101084.09;5070972;28;20062;-70
2023/01/04 10:04:47;;;;;;;0.50;0.50;;;;;;;9.73;78.51;101081.25;5071034;28;20039;-69
2023/01/04 10:07:33;;;;;;;3.22;0.55;;;;;;;9.78;79.09;101083.50;5070640;28;20048;-70
2023/01/04 10:10:00;;;;;;;4.88;0.60;;;;;;;9.82;78.17;101074.22;5074533;28;20083;-69
2023/01/04 10:12:34;;;;;;;1.35;0.82;;;;;;;9.91;78.09;101056.50;5074487;28;20512;-70
2023/01/04 10:15:18;;;;;;;0.82;0.60;;;;;;;9.90;78.34;101058.34;5074499;28;20040;-70
2023/01/04 10:18:13;;;;;;;0.60;0.43;;;;;;;9.97;77.38;101055.91;5074185;28;20032;-70
2023/01/04 10:20:59;;;;;;;0.28;0.28;;;;;;;9.95;77.11;101047.25;5074436;28;20405;-70
2023/01/04 10:23:37;;;;;;;0.45;0.45;;;;;;;10.00;77.91;101040.50;5074410;28;20115;-70
2023/01/04 10:26:13;;;;;;;1.98;0.75;;;;;;;10.01;76.99;101049.31;5074333;28;20044;-69
2023/01/04 10:28:38;;;;;;;1.38;0.77;;;;;;;9.97;77.16;101046.09;5073986;28;20070;-70
2023/01/04 10:31:41;;;;;;;1.73;0.90;;;;;;;9.93;77.54;101038.59;5074122;28;20025;-71
2023/01/04 10:34:24;;;;;;;1.80;0.60;;;;;;;9.90;77.26;101053.00;5078785;28;20032;-70
2023/01/04 10:36:56;;;;;;;0.50;0.50;;;;;;;9.90;77.59;101031.72;5094298;28;20103;-70
2023/01/04 10:39:26;;;;;;;3.40;0.50;;;;;;;9.93;77.28;101041.25;5093925;28;20123;-70
2023/01/04 10:41:58;;;;;;;0.60;0.60;;;;;;;9.93;77.60;101035.91;5094283;28;20298;-69
2023/01/04 10:44:32;;;;;;;0.47;0.40;;;;;;;10.01;78.10;101044.00;5094222;28;20066;-69
2023/01/04 10:47:34;;;;;;;0.93;0.40;;;;;;;10.00;76.15;101031.66;5094064;28;20504;-70
2023/01/04 10:50:23;;;;;;;0.32;0.32;;;;;;;10.05;76.20;101016.94;5094349;28;20063;-69
2023/01/04 10:52:57;;;;;;;0.93;0.60;;;;;;;10.09;76.54;101019.28;5093718;28;20056;-70
2023/01/04 10:55:39;;;;;;;0.75;0.55;;;;;;;10.11;76.21;101028.81;5094178;28;20047;-69
2023/01/04 10:58:24;;;;;;;0.38;0.38;;;;;;;10.12;75.78;101041.13;5093736;28;20453;-70
2023/01/04 11:00:56;;;;;;;0.55;0.50;;;;;;;10.13;75.87;101020.66;5093990;28;20481;-70
2023/01/04 11:03:32;;;;;;;2.10;0.73;;;;;;;10.17;75.80;101022.88;5093912;28;20075;-70
2023/01/04 11:06:01;;;;;;;1.10;0.43;;;;;;;10.17;76.17;101014.03;5093853;28;20046;-69
2023/01/04 11:08:43;;;;;;;0.50;0.30;;;;;;;10.18;75.72;101018.38;5093401;28;20036;-69
2023/01/04 11:11:14;;;;;;;2.33;0.63;;;;;;;10.24;75.70;101007.16;5093596;28;20470;-70
2023/01/04 11:13:39;;;;;;;0.73;0.55;;;;;;;10.32;75.22;101031.19;5093438;28;20047;-70
2023/01/04 11:16:06;;;;;;;0.98;0.60;;;;;;;10.31;75.44;101024.19;5093378;28;20036;-69
2023/01/04 11:18:35;;;;;;;1.15;0.65;;;;;;;10.37;75.64;101022.72;5093068;28;20113;-71
2023/01/04 11:21:05;;;;;;;0.80;0.63;;;;;;;10.35;75.44;101024.72;5093389;28;20075;-70
2023/01/04 11:23:30;;;;;;;0.40;0.22;;;;;;;10.38;75.27;101024.41;5093363;28;20044;-70
2023/01/04 11:25:59;;;;;;;0.75;0.60;;;;;;;10.32;76.01;101007.22;5093216;28;20115;-69
2023/01/04 11:28:31;;;;;;;0.82;0.52;;;;;;;10.33;76.48;101027.53;5091791;28;20070;-69
2023/01/04 11:31:09;;;;;;;0.40;0.40;;;;;;;10.31;76.33;101025.03;5093648;28;20038;-69
2023/01/04 11:34:09;;;;;;;;;;;;;;;10.37;77.53;101009.41;5093776;28;20093;-69
2023/01/04 11:36:43;;;;;;;1.75;0.43;;;;;;;10.33;77.53;100995.56;5050362;28;19935;-69
2023/01/04 11:39:23;;;;;;;0.57;0.43;;;;;;;10.30;77.30;101001.19;5086540;28;20091;-69
2023/01/04 11:42:03;;;;;;;0.85;0.70;;;;;;;10.34;77.21;101007.91;5093049;28;20119;-70
2023/01/04 11:44:30;;;;;;;3.40;0.63;;;;;;;10.39;77.15;101000.28;5093195;28;20404;-69
2023/01/04 11:47:18;;;;;;;3.13;0.50;;;;;;;10.45;77.13;101010.34;5092822;28;20039;-70
2023/01/04 11:49:44;;;;;;;0.50;0.50;;;;;;;10.45;77.51;100999.69;5093153;28;20040;-69
2023/01/04 11:52:40;;;;;;;4.30;0.60;;;;;;;10.47;77.56;101010.16;5092799;28;20024;-70
2023/01/04 11:55:25;;;;;;;0.60;0.33;;;;;;;10.50;76.65;101005.38;5084466;28;20044;-70
2023/01/04 11:58:08;;;;;;;0.60;0.32;;;;;;;10.54;77.50;101004.06;5092571;28;20032;-69
2023/01/04 12:00:34;;;;;;;1.65;0.65;;;;;;;10.55;77.39;101004.91;5092696;28;20063;-71
2023/01/04 12:03:11;;;;;;;1.08;0.40;;;;;;;10.54;78.80;100997.91;5092732;28;20063;-70
2023/01/04 12:05:37;;;;;;;0.40;0.40;;;;;;;10.53;78.33;101015.72;5092433;28;20081;-69
2023/01/04 12:08:02;;;;;;;3.42;0.47;;;;;;;10.53;78.44;101006.88;5092178;28;20074;-70
2023/01/04 12:10:28;;;;;;;0.85;0.65;;;;;;;10.55;78.16;101003.06;5092408;28;20437;-71
2023/01/04 12:12:55;;;;;;;2.88;0.60;;;;;;;10.60;78.39;101003.44;5092518;28;20181;-70
2023/01/04 12:15:44;;;;;;;0.32;0.32;;;;;;;10.52;80.31;100999.91;5092522;28;20032;-70
2023/01/04 12:18:21;;;;;;;0.47;0.47;;;;;;;10.60;79.48;100979.47;5092023;28;20036;-71
2023/01/04 12:20:47;;;;;;;;;;;;;;;10.57;78.90;100978.97;5092773;28;20489;-71
2023/01/04 12:23:13;;;;;;;0.57;0.40;;;;;;;10.61;79.39;100988.28;5073386;28;20007;-71
2023/01/04 12:25:44;;;;;;;0.60;0.40;;;;;;;10.62;78.42;100979.31;5071929;28;20512;-70
2023/01/04 12:28:30;;;;;;;0.65;0.47;;;;;;;10.69;78.47;100963.53;5071766;28;20097;-71
2023/01/04 12:31:18;;;;;;;0.35;0.30;;;;;;;10.80;77.35;100965.94;5071063;28;20456;-70
2023/01/04 12:33:51;;;;;;;1.02;0.50;;;;;;;10.84;77.69;100954.00;5071817;28;20032;-71
2023/01/04 12:36:18;;;;;;;0.70;0.50;;;;;;;10.87;76.28;100951.81;5071762;28;20032;-71
2023/01/04 12:39:11;;;;;;;1.65;0.45;;;;;;;10.88;76.18;100942.00;5071432;28;20098;-71
2023/01/04 12:41:36;;;;;;;1.08;0.50;;;;;;;10.91;76.77;100941.69;5071621;28;20032;-71
2023/01/04 12:44:22;;;;;;;0.55;0.50;;;;;;;10.93;77.04;100933.53;5070462;28;20036;-70
2023/01/04 12:49:37;;;;;;;;;;;;;;;10.96;77.26;100928.75;5071957;28;20640;-71
2023/01/04 12:52:08;;;;;;;0.52;0.52;;;;;;;10.86;77.39;100906.69;5071641;28;20484;-71
2023/01/04 12:54:59;;;;;;;0.85;0.60;;;;;;;10.84;78.14;100916.69;5071809;28;20040;-71
2023/01/04 12:57:30;;;;;;;0.75;0.60;;;;;;;10.80;78.67;100908.16;5071305;28;20040;-71
2023/01/04 13:00:04;;;;;;;2.33;0.47;;;;;;;10.77;78.07;100913.81;5062729;28;20462;-71
2023/01/04 13:02:32;;;;;;;1.95;0.68;;;;;;;10.79;78.89;100918.97;5065506;28;20051;-71
2023/01/04 13:05:13;;;;;;;;;;;;;;;10.83;79.07;100907.00;5071998;28;20405;-71
2023/01/04 13:07:43;;;;;;;0.45;0.45;;;;;;;10.84;78.76;100916.69;5071239;28;19919;-70
2023/01/04 13:10:20;;;;;;;0.30;0.30;;;;;;;10.77;78.69;100924.47;5070191;28;20105;-71
2023/01/04 13:13:13;;;;;;;0.40;0.40;;;;;;;10.77;78.84;100912.97;5070892;28;20068;-71
2023/01/04 13:15:48;;;;;;;0.57;0.50;;;;;;;10.82;78.80;100915.97;5061105;28;20032;-71
2023/01/04 13:18:25;;;;;;;0.40;0.40;;;;;;;10.83;78.83;100917.69;5051135;28;20059;-71
2023/01/04 13:20:50;;;;;;;0.45;0.45;;;;;;;10.87;79.11;100916.34;5051292;28;20033;-71
2023/01/04 13:23:16;;;;;;;1.02;0.70;;;;;;;10.85;79.40;100919.19;5051279;28;20033;-71
2023/01/04 13:25:41;;;;;;;0.50;0.50;;;;;;;10.87;79.23;100919.84;5051193;28;20037;-71
2023/01/04 13:28:16;;;;;;;0.40;0.40;;;;;;;10.89;79.15;100911.72;5050925;28;20033;-71
2023/01/04 13:30:42;;;;;;;0.70;0.50;;;;;;;10.90;79.71;100902.72;5053384;28;20033;-71
2023/01/04 13:33:15;;;;;;;0.60;0.40;;;;;;;10.86;79.00;100901.34;5062676;28;20032;-71
2023/01/04 13:35:41;;;;;;;1.05;0.65;;;;;;;10.88;79.44;100894.03;5071128;28;20036;-71
2023/01/04 13:38:15;;;;;;;0.55;0.47;;;;;;;10.93;79.50;100883.72;5070813;28;20044;-71
2023/01/04 13:40:45;;;;;;;0.63;0.52;;;;;;;10.87;79.40;100889.69;5071242;28;20469;-70
2023/01/04 13:43:13;;;;;;;1.00;0.63;;;;;;;10.85;79.64;100926.34;5072934;28;20101;-71
2023/01/04 13:45:50;;;;;;;1.38;0.68;;;;;;;10.89;79.51;100914.38;5075025;28;20032;-70
2023/01/04 13:48:19;;;;;;;1.25;0.65;;;;;;;10.88;79.69;100896.69;5074830;28;20045;-70
2023/01/04 13:50:58;;;;;;;0.50;0.50;;;;;;;10.98;80.64;100909.91;5074884;28;20036;-71
2023/01/04 13:53:26;;;;;;;0.90;0.55;;;;;;;10.92;79.80;100891.88;5075273;28;20366;-71
2023/01/04 13:55:54;;;;;;;1.00;0.45;;;;;;;10.91;80.03;100895.56;5074792;28;20071;-71
2023/01/04 13:58:22;;;;;;;0.70;0.50;;;;;;;10.96;80.17;100880.75;5074521;28;20441;-71
2023/01/04 14:01:06;;;;;;;1.15;0.40;;;;;;;10.96;79.80;100874.59;5074703;28;20036;-71
2023/01/04 14:03:41;;;;;;;0.50;0.50;;;;;;;11.02;80.16;100874.78;5074777;28;20485;-70
2023/01/04 14:06:17;;;;;;;0.82;0.75;;;;;;;10.98;80.38;100859.25;5074633;28;20079;-71
2023/01/04 14:08:50;;;;;;;0.90;0.55;;;;;;;11.02;80.34;100872.13;5074273;28;20037;-70
2023/01/04 14:14:24;;;;;;;2.30;0.63;;;;;;;11.03;80.90;100871.13;5059823;28;20082;-70
2023/01/04 14:17:03;;;;;;;0.60;0.50;;;;;;;11.04;80.17;100875.44;5054274;28;20033;-71
2023/01/04 14:19:38;;;;;;;1.02;0.40;;;;;;;11.03;81.06;100864.94;5054564;28;20056;-70
2023/01/04 14:22:22;;;;;;;0.50;0.50;;;;;;;11.11;80.42;100879.13;5054310;28;20037;-71
2023/01/04 14:24:49;;;;;;;0.77;0.60;;;;;;;11.06;80.57;100865.44;5054418;28;20048;-70
2023/01/04 14:27:34;;;;;;;0.50;0.50;;;;;;;11.06;80.29;100869.94;5053915;28;20358;-70
2023/01/04 14:30:13;;;;;;;1.67;0.45;;;;;;;11.02;80.73;100868.59;5054287;28;20025;-71
2023/01/04 14:32:38;;;;;;;0.30;0.30;;;;;;;10.97;81.12;100871.75;5054396;28;20036;-70
2023/01/04 14:35:11;;;;;;;0.57;0.45;;;;;;;11.00;81.49;100876.75;5052939;28;20098;-71
2023/01/04 14:37:37;;;;;;;0.57;0.45;;;;;;;10.98;81.39;100873.44;5053863;28;20052;-71
2023/01/04 14:40:13;;;;;;;1.10;0.45;;;;;;;10.89;81.44;100863.75;5056770;28;20489;-70
2023/01/04 14:42:38;;;;;;;0.52;0.52;;;;;;;10.90;82.21;100880.56;5074149;28;20039;-71
2023/01/04 14:45:11;;;;;;;0.38;0.30;;;;;;;10.88;82.15;100884.19;5073897;28;20032;-70
2023/01/04 14:47:37;;;;;;;0.40;0.40;;;;;;;10.91;81.92;100876.91;5073742;28;20036;-70
2023/01/04 14:50:05;;;;;;;;;;;;;;;10.97;81.01;100876.25;5074335;28;20048;-71
2023/01/04 14:52:30;;;;;;;0.20;0.20;;;;;;;10.94;82.03;100861.41;5073715;28;19920;-71
2023/01/04 14:54:56;;;;;;;0.80;0.45;;;;;;;10.93;81.32;100872.22;5073266;28;20037;-71
2023/01/04 14:57:22;;;;;;;0.68;0.50;;;;;;;10.94;81.42;100866.72;5073637;28;20047;-71
2023/01/04 14:59:47;;;;;;;0.20;0.20;;;;;;;10.95;81.31;100868.41;5073890;28;20036;-71
2023/01/04 15:02:12;;;;;;;0.55;0.50;;;;;;;10.96;82.34;100854.09;5073591;28;20036;-70
2023/01/04 15:04:38;;;;;;;1.00;0.50;;;;;;;10.93;81.59;100861.56;5073799;28;20115;-70
2023/01/04 15:07:03;;;;;;;0.57;0.55;;;;;;;10.97;82.18;100857.59;5073386;28;20123;-71
2023/01/04 15:09:29;;;;;;;0.73;0.68;;;;;;;10.98;82.06;100857.44;5073537;28;20052;-70
2023/01/04 15:11:55;;;;;;;0.47;0.45;;;;;;;10.95;81.96;100864.91;5073521;28;20033;-70
2023/01/04 15:14:21;;;;;;;1.23;0.40;;;;;;;10.94;82.08;100858.72;5073629;28;20025;-70
2023/01/04 15:16:47;;;;;;;0.45;0.38;;;;;;;10.96;81.97;100854.09;5073233;28;20115;-70
2023/01/04 15:19:12;;;;;;;0.40;0.40;;;;;;;11.00;81.75;100863.44;5071750;28;20520;-71
2023/01/04 15:21:39;;;;;;;0.65;0.28;;;;;;;10.96;82.31;100851.44;5073178;28;20107;-71
2023/01/04 15:24:05;;;;;;;1.27;0.40;;;;;;;10.98;81.68;100856.59;5071969;28;20063;-71
2023/01/04 15:26:30;;;;;;;1.27;0.63;;;;;;;10.98;81.82;100867.25;5073222;28;20048;-70
2023/01/04 15:28:55;;;;;;;1.23;0.52;;;;;;;10.97;81.81;100863.75;5072747;28;20044;-70
2023/01/04 15:31:21;;;;;;;0.40;0.35;;;;;;;10.98;81.85;100862.75;5073103;28;20060;-71
2023/01/04 15:33:46;;;;;;;0.50;0.50;;;;;;;11.00;81.85;100868.75;5073087;28;20445;-71
2023/01/04 15:36:18;;;;;;;0.68;0.35;;;;;;;11.00;82.22;100873.25;5072799;28;20478;-71
2023/01/04 15:38:43;;;;;;;1.55;0.70;;;;;;;10.97;82.71;100865.59;5072736;28;20135;-70
2023/01/04 15:42:57;;;;;;;1.85;0.60;;;;;;;10.97;82.77;100855.75;5073054;28;20041;-71
2023/01/04 15:44:03;;;;;;;0.77;0.50;;;;;;;10.99;82.58;100852.94;5072714;28;20036;-70
2023/01/04 15:46:28;;;;;;;0.50;0.50;;;;;;;10.98;82.35;100829.94;5072731;28;20040;-71
2023/01/04 15:48:53;;;;;;;0.40;0.40;;;;;;;10.98;83.55;100829.94;5072719;28;20102;-70
2023/01/04 15:51:19;;;;;;;0.40;0.40;;;;;;;10.95;84.24;100823.09;5074036;28;20120;-71
2023/01/04 15:53:44;;;;;;;2.75;0.40;;;;;;;10.94;83.94;100834.75;5072716;28;20447;-70
2023/01/04 15:56:11;;;;;;;0.60;0.50;;;;;;;10.91;84.77;100813.75;5072562;28;20040;-70
2023/01/04 15:58:37;;;;;;;0.33;0.33;;;;;;;10.90;84.40;100817.44;5072260;28;20032;-69
2023/01/04 16:01:11;;;;;;;1.40;0.55;;;;;;;10.87;84.34;100818.56;5072730;28;20294;-69
2023/01/04 16:03:36;;;;;;;1.05;0.40;;;;;;;10.86;84.60;100824.91;5072506;28;20118;-69
2023/01/04 16:06:13;;;;;;;0.45;0.45;;;;;;;10.89;84.81;100837.09;5071364;28;20493;-69
2023/01/04 16:08:39;;;;;;;0.10;0.10;;;;;;;10.90;84.50;100828.09;5072087;28;20046;-70
2023/01/04 16:12:40;;;;;;;0.70;0.50;;;;;;;10.88;84.80;100838.06;5071999;28;20027;-70
2023/01/04 16:14:22;;;;;;;1.67;0.50;;;;;;;10.89;84.84;100821.09;5072100;28;20261;-66
2023/01/04 16:16:47;;;;;;;0.30;0.30;;;;;;;10.90;84.99;100837.91;5072340;28;20068;-66
2023/01/04 16:19:13;;;;;;;0.75;0.35;;;;;;;10.93;85.33;100821.59;5072064;28;20040;-67
2023/01/04 16:21:38;;;;;;;0.45;0.30;;;;;;;10.91;86.05;100812.94;5072166;28;20041;-67
2023/01/04 16:24:05;;;;;;;0.30;0.30;;;;;;;10.92;85.84;100807.44;5072229;28;20105;-69
2023/01/04 16:26:31;;;;;;;0.25;0.25;;;;;;;10.96;85.69;100824.78;5071949;28;20037;-67
2023/01/04 16:28:56;;;;;;;0.47;0.40;;;;;;;10.98;85.33;100809.44;5071924;28;20040;-66
2023/01/04 16:31:22;;;;;;;0.75;0.40;;;;;;;11.01;84.87;100818.94;5072137;28;20397;-67
2023/01/04 16:33:52;;;;;;;0.50;0.50;;;;;;;10.89;85.53;100813.09;5072198;28;20047;-68
2023/01/04 16:36:17;;;;;;;0.30;0.30;;;;;;;10.95;85.99;100824.91;5071934;28;20115;-67
2023/01/04 16:38:44;;;;;;;0.47;0.40;;;;;;;10.98;86.52;100830.78;5071612;28;20036;-66
2023/01/04 16:41:12;;;;;;;0.37;0.30;;;;;;;10.94;86.68;100832.09;5072796;28;20375;-67
2023/01/04 16:43:59;;;;;;;0.52;0.30;;;;;;;11.02;86.25;100845.47;5072404;28;20647;-67
2023/01/04 16:46:33;;;;;;;0.45;0.45;;;;;;;11.00;86.98;100842.09;5072050;28;20064;-66
2023/01/04 16:49:04;;;;;;;0.30;0.30;;;;;;;10.99;88.03;100839.59;5071785;28;20048;-67
2023/01/04 16:51:32;;;;;;;0.45;0.45;;;;;;;10.90;89.07;100846.75;5071752;28;20048;-66
2023/01/04 16:53:59;;;;;;;0.93;0.70;;;;;;;10.95;88.93;100838.25;5071836;28;20040;-67
2023/01/04 16:56:25;;;;;;;0.80;0.50;;;;;;;10.90;88.73;100840.59;5071632;28;20044;-67
2023/01/04 16:58:51;;;;;;;0.73;0.43;;;;;;;10.84;90.21;100840.22;5071753;28;20528;-67
2023/01/04 17:01:22;;;;;;;0.40;0.40;;;;;;;10.79;90.57;100836.38;5071594;28;20064;-66
2023/01/04 17:03:49;;;;;;;0.70;0.40;;;;;;;10.81;91.16;100835.19;5070396;28;20039;-66
2023/01/04 17:06:18;;;;;;;0.35;0.32;;;;;;;10.79;92.07;100826.53;5071686;28;20509;-67
2023/01/04 17:08:45;;;;;;;0.95;0.40;;;;;;;10.69;94.60;100828.47;5071393;28;20032;-67
2023/01/04 17:11:14;;;;;;;0.40;0.40;;;;;;;10.56;96.33;100826.28;5071498;28;20086;-67
2023/01/04 17:13:39;;;;;;;1.05;0.57;;;;;;;10.53;97.44;100821.25;5071432;28;20142;-67